createdAt,value
2022-11-17T00:00:42.669Z,8.67
2022-11-17T00:03:15.851Z,8.72
2022-11-17T00:05:44.887Z,8.74
2022-11-17T00:08:12.022Z,8.76
2022-11-17T00:10:39.201Z,8.70
2022-11-17T00:13:24.580Z,8.70
2022-11-17T00:15:51.786Z,8.68
2022-11-17T00:18:37.706Z,8.65
2022-11-17T00:21:21.429Z,8.64
2022-11-17T00:23:49.852Z,8.61
2022-11-17T00:27:02.783Z,8.60
2022-11-17T00:29:30.292Z,8.60
2022-11-17T00:32:17.038Z,8.64
2022-11-17T00:34:44.173Z,8.67
2022-11-17T00:37:13.254Z,8.69
2022-11-17T00:39:40.166Z,8.66
2022-11-17T00:42:07.244Z,8.63
2022-11-17T00:44:34.058Z,8.63
2022-11-17T00:47:01.159Z,8.62
2022-11-17T00:49:27.964Z,8.62
2022-11-17T00:51:56.423Z,8.66
2022-11-17T00:54:24.011Z,8.67
2022-11-17T00:56:51.397Z,8.67
2022-11-17T00:59:18.464Z,8.65
2022-11-17T01:01:48.000Z,8.65
2022-11-17T01:04:15.888Z,8.67
2022-11-17T01:06:46.941Z,8.68
2022-11-17T01:09:20.794Z,8.66
2022-11-17T01:11:50.970Z,8.68
2022-11-17T01:14:22.663Z,8.70
2022-11-17T01:16:50.928Z,8.71
2022-11-17T01:19:19.004Z,8.71
2022-11-17T01:21:47.147Z,8.70
2022-11-17T01:24:16.490Z,8.66
2022-11-17T01:26:45.877Z,8.63
2022-11-17T01:29:17.244Z,8.61
2022-11-17T01:31:49.157Z,8.60
2022-11-17T01:34:16.035Z,8.58
2022-11-17T01:37:03.117Z,8.56
2022-11-17T01:39:32.215Z,8.57
2022-11-17T01:42:16.258Z,8.57
2022-11-17T01:44:54.664Z,8.57
2022-11-17T01:47:33.730Z,8.56
2022-11-17T01:50:39.999Z,8.58
2022-11-17T01:53:14.082Z,8.60
2022-11-17T01:55:50.505Z,8.55
2022-11-17T01:58:37.943Z,8.56
2022-11-17T02:01:04.990Z,8.47
2022-11-17T02:03:34.844Z,8.28
2022-11-17T02:06:15.583Z,8.25
2022-11-17T02:08:49.242Z,8.23
2022-11-17T02:11:19.532Z,8.11
2022-11-17T02:13:47.131Z,8.08
2022-11-17T02:16:16.688Z,8.07
2022-11-17T02:18:46.817Z,7.99
2022-11-17T02:22:05.833Z,8.01
2022-11-17T02:25:05.187Z,7.98
2022-11-17T02:28:00.652Z,7.94
2022-11-17T02:30:48.449Z,7.94
2022-11-17T02:33:38.701Z,7.90
2022-11-17T02:36:22.893Z,7.88
2022-11-17T02:39:20.167Z,7.88
2022-11-17T02:42:01.250Z,7.88
2022-11-17T02:44:47.549Z,7.83
2022-11-17T02:47:23.820Z,7.80
2022-11-17T02:49:59.039Z,7.76
2022-11-17T02:52:29.794Z,7.77
2022-11-17T02:55:08.306Z,7.78
2022-11-17T02:57:41.591Z,7.68
2022-11-17T03:00:18.862Z,7.67
2022-11-17T03:03:23.366Z,7.71
2022-11-17T03:06:10.965Z,7.78
2022-11-17T03:09:21.874Z,7.82
2022-11-17T03:11:58.158Z,7.81
2022-11-17T03:14:45.102Z,7.76
2022-11-17T03:17:23.786Z,7.75
2022-11-17T03:20:19.641Z,7.77
2022-11-17T03:23:08.667Z,7.81
2022-11-17T03:25:41.640Z,7.80
2022-11-17T03:28:12.442Z,7.86
2022-11-17T03:30:45.536Z,7.84
2022-11-17T03:33:20.144Z,7.80
2022-11-17T03:36:01.343Z,7.79
2022-11-17T03:38:35.491Z,7.77
2022-11-17T03:41:06.991Z,7.77
2022-11-17T03:43:34.724Z,7.69
2022-11-17T03:46:13.141Z,7.72
2022-11-17T03:48:50.282Z,7.65
2022-11-17T03:51:25.212Z,7.60
2022-11-17T03:53:54.671Z,7.61
2022-11-17T03:57:01.092Z,7.59
2022-11-17T04:00:08.520Z,7.64
2022-11-17T04:02:35.915Z,7.63
2022-11-17T04:05:05.974Z,7.58
2022-11-17T04:07:45.710Z,7.57
2022-11-17T04:10:19.355Z,7.60
2022-11-17T04:13:07.639Z,7.64
2022-11-17T04:15:52.911Z,7.53
2022-11-17T04:18:22.173Z,7.44
2022-11-17T04:20:55.345Z,7.46
2022-11-17T04:23:25.417Z,7.39
2022-11-17T04:26:14.748Z,7.39
2022-11-17T04:28:49.434Z,7.37
2022-11-17T04:31:19.029Z,7.34
2022-11-17T04:33:58.787Z,7.36
2022-11-17T04:36:46.168Z,7.36
2022-11-17T04:39:15.781Z,7.39
2022-11-17T04:42:03.208Z,7.40
2022-11-17T04:44:32.724Z,7.42
2022-11-17T04:47:03.068Z,7.46
2022-11-17T04:49:32.129Z,7.49
2022-11-17T04:51:59.075Z,7.50
2022-11-17T04:54:26.208Z,7.48
2022-11-17T04:56:54.678Z,7.43
2022-11-17T04:59:22.342Z,7.45
2022-11-17T05:01:50.143Z,7.30
2022-11-17T05:04:38.388Z,7.30
2022-11-17T05:07:06.457Z,7.37
2022-11-17T05:09:33.616Z,7.34
2022-11-17T05:12:18.949Z,7.28
2022-11-17T05:14:49.080Z,7.23
2022-11-17T05:17:16.677Z,7.25
2022-11-17T05:19:47.144Z,7.25
2022-11-17T05:22:51.270Z,7.20
2022-11-17T05:25:18.590Z,7.19
2022-11-17T05:27:45.371Z,7.18
2022-11-17T05:30:13.138Z,7.17
2022-11-17T05:32:39.971Z,7.21
2022-11-17T05:35:07.608Z,7.21
2022-11-17T05:37:34.377Z,7.22
2022-11-17T05:40:01.378Z,7.16
2022-11-17T05:42:28.167Z,7.13
2022-11-17T05:44:55.291Z,7.10
2022-11-17T05:47:22.115Z,7.18
2022-11-17T05:49:49.110Z,7.18
2022-11-17T05:52:15.989Z,7.21
2022-11-17T05:54:43.172Z,7.13
2022-11-17T05:57:19.894Z,7.03
2022-11-17T05:59:55.420Z,6.99
2022-11-17T06:02:54.763Z,6.99
2022-11-17T06:05:24.010Z,6.95
2022-11-17T06:07:54.909Z,6.85
2022-11-17T06:10:21.648Z,6.87
2022-11-17T06:12:48.890Z,6.81
2022-11-17T06:15:15.899Z,6.84
2022-11-17T06:17:58.477Z,6.82
2022-11-17T06:20:30.526Z,6.83
2022-11-17T06:23:05.263Z,6.86
2022-11-17T06:25:35.400Z,6.88
2022-11-17T06:28:07.851Z,6.89
2022-11-17T06:30:37.556Z,6.94
2022-11-17T06:33:10.598Z,6.92
2022-11-17T06:35:38.655Z,6.95
2022-11-17T06:38:05.820Z,7.00
2022-11-17T06:40:32.711Z,6.94
2022-11-17T06:43:12.536Z,6.92
2022-11-17T06:45:46.042Z,6.98
2022-11-17T06:48:16.834Z,7.04
2022-11-17T06:50:44.540Z,7.06
2022-11-17T06:53:12.857Z,7.08
2022-11-17T06:55:39.972Z,7.10
2022-11-17T06:58:11.735Z,7.16
2022-11-17T07:00:39.049Z,7.04
2022-11-17T07:03:09.297Z,7.02
2022-11-17T07:05:40.089Z,6.95
2022-11-17T07:08:08.750Z,6.87
2022-11-17T07:10:36.708Z,6.97
2022-11-17T07:13:04.036Z,6.87
2022-11-17T07:15:31.889Z,6.86
2022-11-17T07:17:59.072Z,6.79
2022-11-17T07:20:25.996Z,6.76
2022-11-17T07:23:00.050Z,6.80
2022-11-17T07:25:26.952Z,6.83
2022-11-17T07:27:59.562Z,6.85
2022-11-17T07:30:26.992Z,6.89
2022-11-17T07:32:54.994Z,6.87
2022-11-17T07:35:21.970Z,6.94
2022-11-17T07:37:50.313Z,6.95
2022-11-17T07:40:17.336Z,6.81
2022-11-17T07:42:50.910Z,6.86
2022-11-17T07:45:18.315Z,6.86
2022-11-17T07:47:45.375Z,6.86
2022-11-17T07:50:12.265Z,6.82
2022-11-17T07:52:41.549Z,6.80
2022-11-17T07:55:08.869Z,6.81
2022-11-17T07:57:36.616Z,6.76
2022-11-17T08:00:04.695Z,6.81
2022-11-17T08:02:31.778Z,6.83
2022-11-17T08:04:58.682Z,6.89
2022-11-17T08:07:25.829Z,6.95
2022-11-17T08:09:52.800Z,6.92
2022-11-17T08:12:19.923Z,6.95
2022-11-17T08:14:46.779Z,7.05
2022-11-17T08:17:14.123Z,7.13
2022-11-17T08:19:41.092Z,7.11
2022-11-17T08:22:08.310Z,6.92
2022-11-17T08:24:35.155Z,7.01
2022-11-17T08:27:02.312Z,7.02
2022-11-17T08:29:29.178Z,7.08
2022-11-17T08:31:56.349Z,7.01
2022-11-17T08:34:23.347Z,7.01
2022-11-17T08:36:50.575Z,7.04
2022-11-17T08:39:17.471Z,6.99
2022-11-17T08:41:44.723Z,6.86
2022-11-17T08:44:11.606Z,6.87
2022-11-17T08:46:38.798Z,6.92
2022-11-17T08:49:05.769Z,6.95
2022-11-17T08:51:33.302Z,7.00
2022-11-17T08:54:00.323Z,6.95
2022-11-17T08:56:27.622Z,7.00
2022-11-17T08:58:54.698Z,7.00
2022-11-17T09:01:21.888Z,7.04
2022-11-17T09:03:49.065Z,7.05
2022-11-17T09:06:18.131Z,7.13
2022-11-17T09:08:56.479Z,7.15
2022-11-17T09:11:23.869Z,7.12
2022-11-17T09:13:51.025Z,7.14
2022-11-17T09:16:18.602Z,7.19
2022-11-17T09:18:45.768Z,7.15
2022-11-17T09:21:15.755Z,7.17
2022-11-17T09:23:43.325Z,7.17
2022-11-17T09:26:14.671Z,7.15
2022-11-17T09:28:43.070Z,7.13
2022-11-17T09:31:14.429Z,7.19
2022-11-17T09:33:43.348Z,7.21
2022-11-17T09:36:12.844Z,7.23
2022-11-17T09:38:40.842Z,7.26
2022-11-17T09:41:33.446Z,7.32
2022-11-17T09:44:39.994Z,7.32
2022-11-17T09:47:48.044Z,7.35
2022-11-17T09:50:37.299Z,7.25
2022-11-17T09:53:29.466Z,7.29
2022-11-17T09:56:02.735Z,7.34
2022-11-17T09:58:50.996Z,7.33
2022-11-17T10:01:22.055Z,7.38
2022-11-17T10:03:53.633Z,7.40
2022-11-17T10:06:28.694Z,7.46
2022-11-17T10:09:07.043Z,7.46
2022-11-17T10:11:41.483Z,7.46
2022-11-17T10:14:08.615Z,7.50
2022-11-17T10:16:37.663Z,7.47
2022-11-17T10:19:20.163Z,7.52
2022-11-17T10:21:57.788Z,7.45
2022-11-17T10:24:38.844Z,7.47
2022-11-17T10:27:23.556Z,7.42
2022-11-17T10:30:20.108Z,7.37
2022-11-17T10:32:56.946Z,7.38
2022-11-17T10:35:36.382Z,7.48
2022-11-17T10:38:13.849Z,7.55
2022-11-17T10:40:40.917Z,7.58
2022-11-17T10:43:13.864Z,7.56
2022-11-17T10:45:50.978Z,7.60
2022-11-17T10:48:31.830Z,7.62
2022-11-17T10:51:19.564Z,7.57
2022-11-17T10:54:17.153Z,7.54
2022-11-17T10:56:52.092Z,7.58
2022-11-17T10:59:20.745Z,7.55
2022-11-17T11:01:51.519Z,7.60
2022-11-17T11:04:32.312Z,7.65
2022-11-17T11:07:28.914Z,7.63
2022-11-17T11:10:26.417Z,7.62
2022-11-17T11:13:44.275Z,7.70
2022-11-17T11:16:12.096Z,7.61
2022-11-17T11:18:39.520Z,7.49
2022-11-17T11:21:50.591Z,7.61
2022-11-17T11:24:34.953Z,7.73
2022-11-17T11:27:28.244Z,7.72
2022-11-17T11:30:06.319Z,7.71
2022-11-17T11:32:58.586Z,7.80
2022-11-17T11:36:02.436Z,7.81
2022-11-17T11:39:04.027Z,7.88
2022-11-17T11:41:36.938Z,7.87
2022-11-17T11:44:22.986Z,7.91
2022-11-17T11:47:26.944Z,7.88
2022-11-17T11:50:11.176Z,7.94
2022-11-17T11:52:44.847Z,7.90
2022-11-17T11:55:24.831Z,7.94
2022-11-17T11:58:17.376Z,7.94
2022-11-17T12:00:49.465Z,7.91
2022-11-17T12:03:24.264Z,7.77
2022-11-17T12:06:41.772Z,7.88
2022-11-17T12:09:36.792Z,7.94
2022-11-17T12:12:14.559Z,7.96
2022-11-17T12:15:19.274Z,7.97
2022-11-17T12:18:29.366Z,8.06
2022-11-17T12:21:06.020Z,8.08
2022-11-17T12:23:48.491Z,8.08
2022-11-17T12:26:31.588Z,8.06
2022-11-17T12:29:20.346Z,8.10
2022-11-17T12:31:56.689Z,8.07
2022-11-17T12:34:33.926Z,8.00
2022-11-17T12:37:19.346Z,7.97
2022-11-17T12:40:11.611Z,7.89
2022-11-17T12:43:16.873Z,7.91
2022-11-17T12:45:55.909Z,7.94
2022-11-17T12:48:35.112Z,7.93
2022-11-17T12:51:34.673Z,7.98
2022-11-17T12:54:38.412Z,7.86
2022-11-17T12:57:13.348Z,7.89
2022-11-17T13:00:02.662Z,7.87
2022-11-17T13:02:58.014Z,7.91
2022-11-17T13:05:30.216Z,7.94
2022-11-17T13:08:13.900Z,7.94
2022-11-17T13:10:41.848Z,7.98
2022-11-17T13:13:24.452Z,7.97
2022-11-17T13:15:55.881Z,8.00
2022-11-17T13:18:41.232Z,7.98
2022-11-17T13:21:26.686Z,7.96
2022-11-17T13:23:54.040Z,7.88
2022-11-17T13:26:35.841Z,7.86
2022-11-17T13:29:09.950Z,7.94
2022-11-17T13:31:37.213Z,7.96
2022-11-17T13:34:10.253Z,7.97
2022-11-17T13:36:52.955Z,7.98
2022-11-17T13:39:25.739Z,7.89
2022-11-17T13:41:56.435Z,7.87
2022-11-17T13:44:27.106Z,7.89
2022-11-17T13:46:54.258Z,7.89
2022-11-17T13:49:34.537Z,7.82
2022-11-17T13:52:04.805Z,7.78
2022-11-17T13:54:32.545Z,7.78
2022-11-17T13:57:08.756Z,7.73
2022-11-17T13:59:39.207Z,7.74
2022-11-17T14:02:26.168Z,7.72
2022-11-17T14:05:11.238Z,7.72
2022-11-17T14:07:40.051Z,7.72
2022-11-17T14:10:22.406Z,7.69
2022-11-17T14:12:53.490Z,7.65
2022-11-17T14:15:28.520Z,7.65
2022-11-17T14:17:59.955Z,7.61
2022-11-17T14:20:36.212Z,7.63
2022-11-17T14:23:10.532Z,7.63
2022-11-17T14:25:53.162Z,7.63
2022-11-17T14:28:25.514Z,7.61
2022-11-17T14:30:57.836Z,7.56
2022-11-17T14:33:25.941Z,7.53
2022-11-17T14:35:57.043Z,7.52
2022-11-17T14:38:24.803Z,7.52
2022-11-17T14:40:53.566Z,7.50
2022-11-17T14:43:21.983Z,7.49
2022-11-17T14:45:50.537Z,7.50
2022-11-17T14:48:19.685Z,7.48
2022-11-17T14:50:47.548Z,7.48
2022-11-17T14:53:15.120Z,7.49
2022-11-17T14:55:41.990Z,7.49
2022-11-17T14:58:10.036Z,7.46
2022-11-17T15:00:37.734Z,7.49
2022-11-17T15:03:05.338Z,7.41
2022-11-17T15:05:32.588Z,7.42
2022-11-17T15:08:00.107Z,7.46
2022-11-17T15:10:26.966Z,7.43
2022-11-17T15:12:54.145Z,7.42
2022-11-17T15:15:21.166Z,7.48
2022-11-17T15:17:48.227Z,7.51
2022-11-17T15:20:15.211Z,7.45
2022-11-17T15:22:42.492Z,7.47
2022-11-17T15:25:09.698Z,7.49
2022-11-17T15:27:36.782Z,7.45
2022-11-17T15:30:04.856Z,7.42
2022-11-17T15:32:32.145Z,7.41
2022-11-17T15:34:59.058Z,7.42
2022-11-17T15:37:26.281Z,7.48
2022-11-17T15:39:53.819Z,7.49
2022-11-17T15:42:20.968Z,7.45
2022-11-17T15:44:47.800Z,7.43
2022-11-17T15:47:14.919Z,7.34
2022-11-17T15:49:41.771Z,7.34
2022-11-17T15:52:08.874Z,7.32
2022-11-17T15:54:35.703Z,7.39
2022-11-17T15:57:02.909Z,7.47
2022-11-17T15:59:29.964Z,7.52
2022-11-17T16:01:57.145Z,7.52
2022-11-17T16:04:24.349Z,7.55
2022-11-17T16:06:51.625Z,7.53
2022-11-17T16:09:18.731Z,7.49
2022-11-17T16:11:46.032Z,7.46
2022-11-17T16:14:14.849Z,7.50
2022-11-17T16:16:42.247Z,7.52
2022-11-17T16:19:09.348Z,7.54
2022-11-17T16:21:36.503Z,7.56
2022-11-17T16:24:03.618Z,7.59
2022-11-17T16:26:31.372Z,7.62
2022-11-17T16:29:01.823Z,7.60
2022-11-17T16:31:32.916Z,7.58
2022-11-17T16:34:21.915Z,7.61
2022-11-17T16:36:49.132Z,7.62
2022-11-17T16:39:17.650Z,7.62
2022-11-17T16:41:45.757Z,7.67
2022-11-17T16:44:17.144Z,7.69
2022-11-17T16:46:47.884Z,7.68
2022-11-17T16:49:18.343Z,7.71
2022-11-17T16:51:51.679Z,7.75
2022-11-17T16:54:19.827Z,7.79
2022-11-17T16:56:47.094Z,7.85
2022-11-17T16:59:15.029Z,7.91
2022-11-17T17:01:42.424Z,7.88
2022-11-17T17:04:10.996Z,7.87
2022-11-17T17:06:44.083Z,7.83
2022-11-17T17:09:14.111Z,7.92
2022-11-17T17:11:41.756Z,7.96
2022-11-17T17:14:13.318Z,7.89
2022-11-17T17:16:41.489Z,7.82
2022-11-17T17:19:11.914Z,7.82
2022-11-17T17:21:40.959Z,7.83
2022-11-17T17:24:09.282Z,7.84
2022-11-17T17:26:39.197Z,7.78
2022-11-17T17:29:06.655Z,7.81
2022-11-17T17:31:38.008Z,7.79
2022-11-17T17:34:06.656Z,7.78
2022-11-17T17:36:35.193Z,7.79
2022-11-17T17:39:03.542Z,7.80
2022-11-17T17:41:35.097Z,7.83
2022-11-17T17:44:05.281Z,7.85
2022-11-17T17:46:37.503Z,7.86
2022-11-17T17:49:05.075Z,7.89
2022-11-17T17:51:32.185Z,7.93
2022-11-17T17:54:02.067Z,7.96
2022-11-17T17:56:30.801Z,7.96
2022-11-17T17:58:58.690Z,7.92
2022-11-17T18:01:29.386Z,7.87
2022-11-17T18:04:04.725Z,7.82
2022-11-17T18:06:39.087Z,7.83
2022-11-17T18:09:07.994Z,7.83
2022-11-17T18:11:35.950Z,7.88
2022-11-17T18:14:04.321Z,7.88
2022-11-17T18:16:34.086Z,7.92
2022-11-17T18:19:05.462Z,7.93
2022-11-17T18:21:33.331Z,7.94
2022-11-17T18:24:02.429Z,7.94
2022-11-17T18:26:35.511Z,7.93
2022-11-17T18:29:14.806Z,7.94
2022-11-17T18:31:43.034Z,7.96
2022-11-17T18:34:25.517Z,7.97
2022-11-17T18:36:58.405Z,8.01
2022-11-17T18:39:25.477Z,8.05
2022-11-17T18:41:52.728Z,8.08
2022-11-17T18:44:20.053Z,8.05
2022-11-17T18:46:47.817Z,7.98
2022-11-17T18:49:15.000Z,7.95
2022-11-17T18:51:42.666Z,7.99
2022-11-17T18:54:12.632Z,7.98
2022-11-17T18:56:40.147Z,8.05
2022-11-17T18:59:11.818Z,8.10
2022-11-17T19:01:42.870Z,8.09
2022-11-17T19:04:13.713Z,8.02
2022-11-17T19:06:41.275Z,8.10
2022-11-17T19:09:08.584Z,8.15
2022-11-17T19:11:35.960Z,8.16
2022-11-17T19:14:07.292Z,8.14
2022-11-17T19:16:44.076Z,8.11
2022-11-17T19:19:13.663Z,8.13
2022-11-17T19:21:41.524Z,8.19
2022-11-17T19:24:09.159Z,8.20
2022-11-17T19:26:36.339Z,8.15
2022-11-17T19:29:14.303Z,8.11
2022-11-17T19:31:43.992Z,8.08
2022-11-17T19:34:11.462Z,7.98
2022-11-17T19:36:39.488Z,7.93
2022-11-17T19:39:06.497Z,8.00
2022-11-17T19:41:38.618Z,8.07
2022-11-17T19:44:08.763Z,8.07
2022-11-17T19:46:37.175Z,8.10
2022-11-17T19:49:06.136Z,8.06
2022-11-17T19:51:37.023Z,8.01
2022-11-17T19:54:08.027Z,8.05
2022-11-17T19:56:36.491Z,8.05
2022-11-17T19:59:03.658Z,8.03
2022-11-17T20:01:32.246Z,7.97
2022-11-17T20:04:01.196Z,7.95
2022-11-17T20:06:36.199Z,7.89
2022-11-17T20:09:12.522Z,7.90
2022-11-17T20:11:40.987Z,7.84
2022-11-17T20:14:08.032Z,7.81
2022-11-17T20:16:36.853Z,7.78
2022-11-17T20:19:03.847Z,7.76
2022-11-17T20:21:31.895Z,7.71
2022-11-17T20:23:59.440Z,7.71
2022-11-17T20:26:32.649Z,7.74
2022-11-17T20:29:01.069Z,7.78
2022-11-17T20:31:33.054Z,7.83
2022-11-17T20:34:02.149Z,7.87
2022-11-17T20:36:32.659Z,7.87
2022-11-17T20:39:03.824Z,7.85
2022-11-17T20:41:31.344Z,7.81
2022-11-17T20:44:00.466Z,7.71
2022-11-17T20:46:28.281Z,7.71
2022-11-17T20:48:55.307Z,7.73
2022-11-17T20:51:25.038Z,7.74
2022-11-17T20:53:52.722Z,7.79
2022-11-17T20:56:21.961Z,7.84
2022-11-17T20:58:49.090Z,7.84
2022-11-17T21:01:19.873Z,7.83
2022-11-17T21:03:47.650Z,7.83
2022-11-17T21:06:15.959Z,7.81
2022-11-17T21:08:45.019Z,7.86
2022-11-17T21:11:37.314Z,7.86
2022-11-17T21:14:07.465Z,7.67
2022-11-17T21:16:37.819Z,7.65
2022-11-17T21:19:05.704Z,7.70
2022-11-17T21:21:33.396Z,7.70
2022-11-17T21:24:00.291Z,7.71
2022-11-17T21:26:28.115Z,7.70
2022-11-17T21:28:58.402Z,7.71
2022-11-17T21:31:31.289Z,7.70
2022-11-17T21:34:02.532Z,7.75
2022-11-17T21:36:34.413Z,7.77
2022-11-17T21:39:02.033Z,7.79
2022-11-17T21:41:34.768Z,7.78
2022-11-17T21:44:03.189Z,7.77
2022-11-17T21:46:33.959Z,7.77
2022-11-17T21:49:01.609Z,7.80
2022-11-17T21:51:33.513Z,7.78
2022-11-17T21:54:08.689Z,7.73
2022-11-17T21:56:36.676Z,7.69
2022-11-17T21:59:12.477Z,7.68
2022-11-17T22:01:40.393Z,7.71
2022-11-17T22:04:07.321Z,7.70
2022-11-17T22:06:34.821Z,7.72
2022-11-17T22:09:01.633Z,7.76
2022-11-17T22:11:37.609Z,7.78
2022-11-17T22:14:08.119Z,7.77
2022-11-17T22:16:38.139Z,7.78
2022-11-17T22:19:06.208Z,7.78
2022-11-17T22:21:33.816Z,7.77
2022-11-17T22:24:00.858Z,7.72
2022-11-17T22:26:28.293Z,7.69
2022-11-17T22:28:56.083Z,7.69
2022-11-17T22:31:24.146Z,7.72
2022-11-17T22:33:51.705Z,7.76
2022-11-17T22:36:19.913Z,7.76
2022-11-17T22:38:51.439Z,7.69
2022-11-17T22:41:21.932Z,7.59
2022-11-17T22:43:55.146Z,7.63
2022-11-17T22:46:26.374Z,7.63
2022-11-17T22:48:53.621Z,7.53
2022-11-17T22:51:40.035Z,7.52
2022-11-17T22:54:08.627Z,7.53
2022-11-17T22:56:36.412Z,7.58
2022-11-17T22:59:03.633Z,7.57
2022-11-17T23:01:30.892Z,7.59
2022-11-17T23:03:58.457Z,7.57
2022-11-17T23:06:27.435Z,7.57
2022-11-17T23:08:56.168Z,7.56
2022-11-17T23:11:39.551Z,7.53
2022-11-17T23:14:11.246Z,7.52
2022-11-17T23:16:39.479Z,7.59
2022-11-17T23:19:07.214Z,7.60
2022-11-17T23:21:34.348Z,7.56
2022-11-17T23:24:01.151Z,7.56
2022-11-17T23:26:28.380Z,7.56
2022-11-17T23:28:55.528Z,7.44
2022-11-17T23:31:22.603Z,7.44
2022-11-17T23:33:49.538Z,7.46
2022-11-17T23:36:20.146Z,7.46
2022-11-17T23:38:49.255Z,7.50
2022-11-17T23:41:19.875Z,7.54
2022-11-17T23:43:52.311Z,7.46
2022-11-17T23:46:23.442Z,7.50
2022-11-17T23:48:50.691Z,7.53
2022-11-17T23:51:22.977Z,7.54
2022-11-17T23:53:50.537Z,7.54
2022-11-17T23:56:20.457Z,7.54
2022-11-17T23:58:48.025Z,7.55
